Licenciado Adolfo Lopez Mateos International Airport
MMTO : rendu visible

Aérodrome :











RETROUVEZ-NOUS SUR...

 
LOGIN :

S'inscrire | Disclaimer

   EN    FR    IT 

 









Légende :    VFR   VFR Marginal   IFR   IFR Intensif   IFR Très Intensif
Visi : 
Plafond : 
>= 8 km
>= 3000ft
5 à 8 km
1000 à 3000 ft
1500m à 5 km
500 à 1000 ft
800 à 1500m
200 à 500 ft
< 800m
< 200 ft
Symboles :   Orages  Brouillard  Fortes neiges  Fortes précipitations  Vent > 20 kt






- Altitude de l'aérodrome : 8466 ft
- Code IATA : TLC


MMTO - Licenciado Adolfo Lopez Mateos International

DERNIER METAR :
  • 120146Z 06006KT 7SM FEW015 BKN200 09/04 A3045 RMK 8/108 HZY

METARs EXPIRÉS :
  • 120050Z 18008KT 7SM FEW015 SCT200 12/05 A3043 RMK 8/108 HZY
  • 112346Z 17009KT 8SM SCT015 BKN200 14/04 A3040 RMK SLP/// 5//// 9// 8/208 HZY

TAF TAF MMTO
Valide du 12 à 00h jusqu'au 13 à 06h UTC


112248Z 1200/1306 16010KT P6SM SCT015 BKN200 TX21/1220Z TN04/1212Z
FM120400 00000KT 4SM HZ SCT015 SCT200
BECMG 1208/1209 2SM BR HZ
TEMPO 1210/1214 1/4SM FG VV002
FM121500 30005KT 3SM HZ SCT015 BKN200
FM121700 29006KT 4SM HZ SCT070 BKN200
BECMG 1219/1220 6SM HZ SCT015 BKN070 BKN200
FM130200 01008KT 6SM HZ BKN070 BKN200



MET'MAP, la Météo Aéronautique d'un coup d'oeil ! - Copyright ORBIFLY Décembre 2007 - Disclaimer

ORBIFLY MET'MAP TEAM :

Programmation & Développement : Alexandra Zaïnal
Sur une idée originale de : Baudouin d'Aumeries
Assistance à la programmation : Marc-Olivier Méhu
Soutien technique & logistique : Manuel Goepfert

Contact : metmap@orbifly.com




SOURCES & CREDITS :

   NOAA       Earth
Advisory